createdAt,value
2019-05-22T00:04:58.187Z,87.81
2019-05-22T00:10:03.913Z,88.90
2019-05-22T00:15:08.474Z,88.75
2019-05-22T00:20:14.438Z,88.97
2019-05-22T00:25:26.675Z,86.46
2019-05-22T00:30:33.567Z,89.58
2019-05-22T00:35:38.653Z,89.65
2019-05-22T00:40:43.078Z,89.80
2019-05-22T00:45:49.679Z,88.84
2019-05-22T00:51:05.111Z,89.17
2019-05-22T00:56:28.975Z,89.04
2019-05-22T01:01:38.896Z,88.86
2019-05-22T01:06:46.779Z,88.27
2019-05-22T01:11:52.482Z,87.09
2019-05-22T01:16:56.843Z,88.22
2019-05-22T01:22:02.228Z,87.16
2019-05-22T01:27:08.249Z,88.38
2019-05-22T01:32:16.087Z,88.76
2019-05-22T01:37:20.634Z,88.50
2019-05-22T01:42:30.404Z,88.16
2019-05-22T01:48:02.642Z,87.77
2019-05-22T01:53:08.407Z,87.76
2019-05-22T01:58:12.963Z,88.44
2019-05-22T02:03:17.909Z,89.08
2019-05-22T02:08:24.034Z,89.79
2019-05-22T02:13:42.370Z,90.06
2019-05-22T02:18:48.467Z,89.53
2019-05-22T02:23:52.882Z,90.41
2019-05-22T02:28:58.902Z,89.50
2019-05-22T02:34:05.186Z,90.30
2019-05-22T02:39:15.665Z,88.99
2019-05-22T02:44:21.125Z,89.43
2019-05-22T02:49:26.459Z,89.58
2019-05-22T02:54:32.679Z,87.68
2019-05-22T02:59:37.507Z,89.08
2019-05-22T03:04:57.655Z,88.82
2019-05-22T03:10:03.604Z,88.52
2019-05-22T03:15:11.085Z,88.83
2019-05-22T03:20:18.918Z,89.62
2019-05-22T03:25:23.335Z,88.69
2019-05-22T03:30:32.773Z,89.10
2019-05-22T03:35:43.549Z,88.24
2019-05-22T03:40:51.268Z,89.04
2019-05-22T03:45:56.490Z,88.37
2019-05-22T03:51:13.596Z,88.96
2019-05-22T03:56:18.291Z,89.19
2019-05-22T04:01:24.228Z,90.19
2019-05-22T04:06:28.568Z,91.21
2019-05-22T04:11:41.909Z,91.14
2019-05-22T04:16:47.424Z,90.00
2019-05-22T04:21:52.049Z,90.66
2019-05-22T04:26:56.763Z,90.76
2019-05-22T04:32:05.735Z,92.67
2019-05-22T04:37:10.790Z,92.86
2019-05-22T04:42:17.471Z,92.37
2019-05-22T04:47:21.966Z,93.64
2019-05-22T04:52:26.611Z,93.02
2019-05-22T04:57:32.147Z,93.15
2019-05-22T05:02:37.248Z,93.36
2019-05-22T05:07:41.807Z,93.88
2019-05-22T05:12:47.099Z,89.89
2019-05-22T05:17:51.551Z,91.82
2019-05-22T05:22:56.031Z,90.21
2019-05-22T05:28:02.468Z,91.81
2019-05-22T05:33:07.540Z,93.55
2019-05-22T05:38:12.760Z,95.79
2019-05-22T05:43:17.749Z,95.79
2019-05-22T05:48:22.646Z,94.75
2019-05-22T05:53:29.145Z,93.79
2019-05-22T05:58:34.674Z,91.84
2019-05-22T06:03:41.456Z,92.61
2019-05-22T06:08:48.070Z,93.99
2019-05-22T06:13:52.608Z,92.21
2019-05-22T06:18:58.415Z,93.03
2019-05-22T06:24:23.888Z,93.31
2019-05-22T06:29:57.252Z,91.90
2019-05-22T06:35:03.959Z,92.05
2019-05-22T06:40:10.428Z,91.33
2019-05-22T06:45:14.799Z,91.66
2019-05-22T06:50:19.579Z,92.59
2019-05-22T06:55:24.105Z,91.13
2019-05-22T07:00:29.565Z,90.89
2019-05-22T07:05:34.002Z,89.97
2019-05-22T07:10:39.131Z,89.31
2019-05-22T07:15:44.298Z,88.08
2019-05-22T07:20:50.545Z,87.54
2019-05-22T07:25:54.990Z,87.88
2019-05-22T07:30:59.447Z,88.78
2019-05-22T07:36:16.507Z,87.02
2019-05-22T07:41:10.506Z,87.13
2019-05-22T07:46:15.297Z,87.22
2019-05-22T07:51:20.196Z,87.54
2019-05-22T07:56:24.820Z,87.21
2019-05-22T08:01:30.202Z,86.39
2019-05-22T08:06:34.792Z,86.86
2019-05-22T08:11:39.778Z,87.51
2019-05-22T08:16:44.313Z,87.36
2019-05-22T08:21:48.958Z,86.43
2019-05-22T08:26:55.155Z,87.11
2019-05-22T08:32:00.709Z,86.86
2019-05-22T08:37:08.375Z,86.28
2019-05-22T08:42:15.023Z,87.36
2019-05-22T08:47:22.923Z,86.93
2019-05-22T08:52:28.795Z,84.56
2019-05-22T08:57:35.447Z,86.99
2019-05-22T09:02:40.446Z,85.98
2019-05-22T09:07:45.696Z,85.45
2019-05-22T09:12:50.153Z,85.42
2019-05-22T09:17:54.787Z,86.07
2019-05-22T09:22:59.785Z,89.81
2019-05-22T09:28:04.494Z,91.33
2019-05-22T09:33:10.635Z,91.21
2019-05-22T09:38:15.154Z,90.98
2019-05-22T09:43:22.833Z,92.89
2019-05-22T09:48:29.265Z,92.11
2019-05-22T09:53:34.971Z,93.06
2019-05-22T09:58:39.412Z,91.59
2019-05-22T10:03:44.053Z,91.52
2019-05-22T10:08:48.456Z,92.43
2019-05-22T10:13:52.976Z,91.96
2019-05-22T10:18:57.377Z,89.81
2019-05-22T10:24:03.876Z,91.35
2019-05-22T10:29:08.403Z,91.60
2019-05-22T10:34:12.974Z,91.26
2019-05-22T10:39:17.444Z,91.52
2019-05-22T10:44:21.872Z,91.95
2019-05-22T10:49:26.257Z,92.32
2019-05-22T10:54:30.633Z,91.90
2019-05-22T10:59:35.203Z,91.82
2019-05-22T11:04:39.845Z,91.19
2019-05-22T11:09:44.197Z,91.46
2019-05-22T11:14:48.560Z,90.44
2019-05-22T11:19:53.074Z,89.41
2019-05-22T11:24:57.451Z,90.77
2019-05-22T11:30:01.845Z,89.79
2019-05-22T11:35:08.860Z,90.28
2019-05-22T11:40:15.195Z,89.43
2019-05-22T11:45:20.677Z,88.90
2019-05-22T11:50:25.569Z,88.51
2019-05-22T11:55:44.190Z,87.38
2019-05-22T12:00:36.880Z,87.13
2019-05-22T12:05:41.405Z,87.13
2019-05-22T12:10:47.021Z,89.33
2019-05-22T12:15:52.474Z,89.49
2019-05-22T12:20:57.206Z,90.71
2019-05-22T12:26:01.630Z,91.24
2019-05-22T12:31:07.007Z,91.52
2019-05-22T12:36:12.291Z,91.36
2019-05-22T12:41:19.009Z,90.25
2019-05-22T12:46:23.622Z,90.81
2019-05-22T12:51:28.524Z,92.19
2019-05-22T12:56:33.063Z,91.97
2019-05-22T13:01:38.781Z,92.24
2019-05-22T13:06:43.210Z,93.01
2019-05-22T13:11:47.726Z,92.87
2019-05-22T13:16:52.685Z,94.10
2019-05-22T13:21:58.662Z,95.04
2019-05-22T13:27:03.069Z,94.96
2019-05-22T13:32:07.748Z,93.53
2019-05-22T13:37:12.166Z,93.31
2019-05-22T13:42:16.554Z,92.47
2019-05-22T13:47:21.766Z,92.37
2019-05-22T13:52:26.292Z,93.66
2019-05-22T13:57:31.418Z,92.08
2019-05-22T14:02:36.068Z,94.30
2019-05-22T14:07:40.449Z,95.21
2019-05-22T14:12:46.323Z,95.70
2019-05-22T14:17:50.662Z,95.52
2019-05-22T14:22:55.279Z,94.53
2019-05-22T14:27:59.691Z,94.69
2019-05-22T14:33:05.410Z,95.41
2019-05-22T14:38:10.253Z,95.46
2019-05-22T14:43:15.812Z,96.18
2019-05-22T14:48:20.569Z,96.35
2019-05-22T14:53:25.312Z,97.31
2019-05-22T14:58:30.020Z,96.42
2019-05-22T15:03:34.863Z,96.11
2019-05-22T15:08:39.233Z,96.36
2019-05-22T15:13:43.792Z,97.08
2019-05-22T15:18:48.142Z,96.62
2019-05-22T15:23:52.794Z,96.76
2019-05-22T15:28:57.342Z,96.88
2019-05-22T15:34:02.867Z,98.06
2019-05-22T15:39:08.939Z,96.64
2019-05-22T15:44:13.800Z,97.24
2019-05-22T15:49:19.567Z,98.20
2019-05-22T15:54:25.012Z,96.80
2019-05-22T15:59:30.221Z,97.67
2019-05-22T16:04:35.472Z,98.09
2019-05-22T16:09:40.904Z,97.07
2019-05-22T16:14:45.452Z,96.68
2019-05-22T16:19:50.450Z,96.49
2019-05-22T16:24:54.890Z,96.50
2019-05-22T16:30:01.176Z,96.21
2019-05-22T16:35:06.990Z,96.04
2019-05-22T16:40:12.342Z,96.02
2019-05-22T16:45:16.862Z,95.27
2019-05-22T16:50:23.025Z,95.45
2019-05-22T16:55:28.323Z,95.08
2019-05-22T17:00:33.282Z,95.32
2019-05-22T17:05:38.896Z,94.36
2019-05-22T17:10:44.397Z,95.38
2019-05-22T17:15:48.819Z,94.41
2019-05-22T17:20:53.312Z,94.41
2019-05-22T17:25:58.718Z,95.00
2019-05-22T17:31:03.285Z,95.14
2019-05-22T17:36:08.010Z,95.21
2019-05-22T17:41:12.801Z,94.56
2019-05-22T17:46:17.777Z,94.90
2019-05-22T17:51:22.297Z,95.60
2019-05-22T17:56:26.649Z,95.34
2019-05-22T18:01:31.385Z,95.54
2019-05-22T18:06:35.900Z,95.87
2019-05-22T18:11:40.408Z,96.04
2019-05-22T18:16:45.384Z,96.53
2019-05-22T18:21:49.819Z,94.98
2019-05-22T18:26:54.196Z,95.17
2019-05-22T18:31:58.585Z,95.90
2019-05-22T18:37:02.996Z,95.26
2019-05-22T18:42:07.467Z,95.46
2019-05-22T18:47:11.881Z,93.76
2019-05-22T18:52:16.403Z,94.74
2019-05-22T18:57:21.165Z,94.45
2019-05-22T19:02:25.838Z,94.83
2019-05-22T19:07:30.195Z,94.48
2019-05-22T19:12:34.619Z,93.98
2019-05-22T19:17:39.470Z,95.11
2019-05-22T19:22:58.529Z,94.11
2019-05-22T19:27:49.953Z,93.58
2019-05-22T19:32:54.350Z,93.41
2019-05-22T19:38:00.634Z,93.57
2019-05-22T19:43:07.060Z,92.70
2019-05-22T19:48:11.463Z,93.19
2019-05-22T19:53:19.269Z,91.78
2019-05-22T19:58:25.072Z,92.46
2019-05-22T20:03:29.460Z,93.37
2019-05-22T20:08:36.249Z,91.97
2019-05-22T20:13:40.836Z,92.22
2019-05-22T20:18:45.237Z,91.87
2019-05-22T20:23:49.789Z,90.29
2019-05-22T20:28:54.966Z,91.92
2019-05-22T20:33:59.805Z,91.71
2019-05-22T20:39:07.170Z,92.76
2019-05-22T20:44:12.137Z,93.72
2019-05-22T20:49:16.477Z,91.55
2019-05-22T20:54:21.289Z,91.66
2019-05-22T20:59:26.348Z,91.10
2019-05-22T21:04:32.692Z,90.80
2019-05-22T21:09:37.757Z,90.49
2019-05-22T21:14:42.599Z,89.16
2019-05-22T21:19:48.205Z,89.09
2019-05-22T21:24:53.388Z,88.15
2019-05-22T21:29:58.319Z,90.00
2019-05-22T21:35:04.142Z,88.82
2019-05-22T21:40:11.031Z,88.42
2019-05-22T21:45:16.439Z,88.00
2019-05-22T21:50:20.965Z,87.81
2019-05-22T21:55:25.578Z,87.81
2019-05-22T22:00:40.614Z,86.88
2019-05-22T22:05:45.348Z,88.25
2019-05-22T22:10:50.372Z,87.91
2019-05-22T22:15:55.071Z,87.67
2019-05-22T22:21:00.113Z,86.81
2019-05-22T22:26:23.267Z,85.88
2019-05-22T22:31:13.078Z,84.95
2019-05-22T22:36:18.048Z,85.62
2019-05-22T22:41:22.665Z,85.42
2019-05-22T22:46:33.782Z,86.38
2019-05-22T22:51:39.241Z,85.95
2019-05-22T22:56:43.913Z,87.31
2019-05-22T23:01:51.690Z,86.40
2019-05-22T23:06:58.562Z,85.87
2019-05-22T23:12:04.456Z,85.92
2019-05-22T23:17:11.285Z,85.24
2019-05-22T23:22:15.920Z,84.98
2019-05-22T23:27:21.042Z,85.75
2019-05-22T23:32:27.172Z,86.38
2019-05-22T23:37:31.804Z,85.17
2019-05-22T23:42:39.691Z,85.03
2019-05-22T23:47:59.019Z,85.79
2019-05-22T23:53:05.126Z,86.42
2019-05-22T23:58:12.186Z,84.96
